sensor_id;sensor_type;location;lat;lon;timestamp;pressure;altitude;pressure_sealevel;temperature;humidity
6094;BME280;19964;42.060;24.700;2023-05-16T00:01:58;97365.81;;;12.96;100.00
6094;BME280;19964;42.060;24.700;2023-05-16T00:04:26;97365.16;;;13.06;100.00
6094;BME280;19964;42.060;24.700;2023-05-16T00:06:53;97366.97;;;13.05;100.00
6094;BME280;19964;42.060;24.700;2023-05-16T00:09:20;97355.78;;;13.05;100.00
6094;BME280;19964;42.060;24.700;2023-05-16T00:11:49;97355.16;;;12.98;100.00
6094;BME280;19964;42.060;24.700;2023-05-16T00:14:15;97353.34;;;12.98;100.00
6094;BME280;19964;42.060;24.700;2023-05-16T00:16:43;97337.94;;;12.92;100.00
6094;BME280;19964;42.060;24.700;2023-05-16T00:19:11;97354.34;;;13.14;100.00
6094;BME280;19964;42.060;24.700;2023-05-16T00:21:38;97349.13;;;13.14;100.00
6094;BME280;19964;42.060;24.700;2023-05-16T00:24:05;97351.00;;;13.18;100.00
6094;BME280;19964;42.060;24.700;2023-05-16T00:26:33;97358.75;;;13.13;100.00
6094;BME280;19964;42.060;24.700;2023-05-16T00:29:01;97350.69;;;13.15;100.00
6094;BME280;19964;42.060;24.700;2023-05-16T00:31:28;97353.91;;;13.22;100.00
6094;BME280;19964;42.060;24.700;2023-05-16T00:33:55;97352.44;;;13.09;100.00
6094;BME280;19964;42.060;24.700;2023-05-16T00:36:22;97351.72;;;13.14;100.00
6094;BME280;19964;42.060;24.700;2023-05-16T00:38:49;97353.84;;;13.17;100.00
6094;BME280;19964;42.060;24.700;2023-05-16T00:41:16;97348.88;;;13.15;100.00
6094;BME280;19964;42.060;24.700;2023-05-16T00:43:43;97332.97;;;13.12;100.00
6094;BME280;19964;42.060;24.700;2023-05-16T00:46:11;97337.34;;;13.06;100.00
6094;BME280;19964;42.060;24.700;2023-05-16T00:48:38;97335.28;;;13.08;100.00
6094;BME280;19964;42.060;24.700;2023-05-16T00:51:06;97320.78;;;13.12;100.00
6094;BME280;19964;42.060;24.700;2023-05-16T00:53:34;97327.81;;;13.17;100.00
6094;BME280;19964;42.060;24.700;2023-05-16T00:56:01;97327.06;;;13.16;100.00
6094;BME280;19964;42.060;24.700;2023-05-16T00:58:29;97328.78;;;13.11;100.00
6094;BME280;19964;42.060;24.700;2023-05-16T01:00:58;97327.78;;;13.12;100.00
6094;BME280;19964;42.060;24.700;2023-05-16T01:03:28;97318.47;;;13.16;100.00
6094;BME280;19964;42.060;24.700;2023-05-16T01:05:56;97330.41;;;13.17;100.00
6094;BME280;19964;42.060;24.700;2023-05-16T01:08:23;97324.50;;;13.00;100.00
6094;BME280;19964;42.060;24.700;2023-05-16T01:10:58;97319.25;;;12.95;100.00
6094;BME280;19964;42.060;24.700;2023-05-16T01:13:32;97314.19;;;12.83;100.00
6094;BME280;19964;42.060;24.700;2023-05-16T01:16:09;97319.81;;;12.75;100.00
6094;BME280;19964;42.060;24.700;2023-05-16T01:18:46;97306.94;;;12.85;100.00
6094;BME280;19964;42.060;24.700;2023-05-16T01:21:26;97306.78;;;12.97;100.00
6094;BME280;19964;42.060;24.700;2023-05-16T01:24:03;97304.75;;;12.99;100.00
6094;BME280;19964;42.060;24.700;2023-05-16T01:26:37;97309.53;;;12.85;100.00
6094;BME280;19964;42.060;24.700;2023-05-16T01:29:05;97308.66;;;13.01;100.00
6094;BME280;19964;42.060;24.700;2023-05-16T01:31:33;97306.94;;;12.85;100.00
6094;BME280;19964;42.060;24.700;2023-05-16T01:34:00;97298.13;;;12.91;100.00
6094;BME280;19964;42.060;24.700;2023-05-16T01:36:34;97308.13;;;12.78;100.00
6094;BME280;19964;42.060;24.700;2023-05-16T01:39:08;97298.63;;;12.88;100.00
6094;BME280;19964;42.060;24.700;2023-05-16T01:41:47;97296.22;;;12.82;100.00
6094;BME280;19964;42.060;24.700;2023-05-16T01:44:22;97293.31;;;12.78;100.00
6094;BME280;19964;42.060;24.700;2023-05-16T01:46:55;97294.81;;;12.74;100.00
6094;BME280;19964;42.060;24.700;2023-05-16T01:49:40;97290.13;;;12.71;100.00
6094;BME280;19964;42.060;24.700;2023-05-16T01:52:12;97281.91;;;12.79;100.00
6094;BME280;19964;42.060;24.700;2023-05-16T01:54:43;97285.81;;;12.82;100.00
6094;BME280;19964;42.060;24.700;2023-05-16T01:57:12;97232.25;;;12.32;100.00
6094;BME280;19964;42.060;24.700;2023-05-16T01:59:40;97274.38;;;12.34;100.00
6094;BME280;19964;42.060;24.700;2023-05-16T02:02:08;97267.16;;;12.41;100.00
6094;BME280;19964;42.060;24.700;2023-05-16T02:04:35;97258.78;;;12.34;100.00
6094;BME280;19964;42.060;24.700;2023-05-16T02:07:02;97258.56;;;12.41;100.00
6094;BME280;19964;42.060;24.700;2023-05-16T02:09:29;97252.66;;;12.45;100.00
6094;BME280;19964;42.060;24.700;2023-05-16T02:11:56;97252.84;;;12.39;100.00
6094;BME280;19964;42.060;24.700;2023-05-16T02:14:26;97255.50;;;12.44;100.00
6094;BME280;19964;42.060;24.700;2023-05-16T02:16:53;97258.16;;;12.49;100.00
6094;BME280;19964;42.060;24.700;2023-05-16T02:19:20;97254.59;;;12.55;100.00
6094;BME280;19964;42.060;24.700;2023-05-16T02:21:47;97262.56;;;12.48;100.00
6094;BME280;19964;42.060;24.700;2023-05-16T02:24:14;97259.13;;;12.43;100.00
6094;BME280;19964;42.060;24.700;2023-05-16T02:26:41;97251.75;;;12.57;100.00
6094;BME280;19964;42.060;24.700;2023-05-16T02:29:08;97255.13;;;12.57;100.00
6094;BME280;19964;42.060;24.700;2023-05-16T02:31:36;97257.69;;;12.52;100.00
6094;BME280;19964;42.060;24.700;2023-05-16T02:34:03;97250.25;;;12.39;100.00
6094;BME280;19964;42.060;24.700;2023-05-16T02:36:31;97249.69;;;12.37;100.00
6094;BME280;19964;42.060;24.700;2023-05-16T02:38:58;97248.25;;;12.46;100.00
6094;BME280;19964;42.060;24.700;2023-05-16T02:41:25;97244.50;;;12.37;100.00
6094;BME280;19964;42.060;24.700;2023-05-16T02:43:52;97239.44;;;12.47;100.00
6094;BME280;19964;42.060;24.700;2023-05-16T02:46:21;97238.88;;;12.23;100.00
6094;BME280;19964;42.060;24.700;2023-05-16T02:48:50;97231.34;;;12.22;100.00
6094;BME280;19964;42.060;24.700;2023-05-16T02:51:19;97229.53;;;12.22;100.00
6094;BME280;19964;42.060;24.700;2023-05-16T02:53:46;97233.88;;;12.38;100.00
6094;BME280;19964;42.060;24.700;2023-05-16T02:56:13;97239.81;;;12.34;100.00
6094;BME280;19964;42.060;24.700;2023-05-16T02:58:40;97247.88;;;12.37;100.00
6094;BME280;19964;42.060;24.700;2023-05-16T03:01:07;97229.09;;;12.09;100.00
6094;BME280;19964;42.060;24.700;2023-05-16T03:03:35;97256.59;;;12.26;100.00
6094;BME280;19964;42.060;24.700;2023-05-16T03:06:04;97264.31;;;12.21;100.00
6094;BME280;19964;42.060;24.700;2023-05-16T03:08:32;97262.25;;;12.23;100.00
6094;BME280;19964;42.060;24.700;2023-05-16T03:10:59;97228.28;;;11.87;100.00
6094;BME280;19964;42.060;24.700;2023-05-16T03:13:26;97264.97;;;12.12;100.00
6094;BME280;19964;42.060;24.700;2023-05-16T03:15:54;97255.81;;;12.09;100.00
6094;BME280;19964;42.060;24.700;2023-05-16T03:18:21;97253.22;;;12.09;100.00
6094;BME280;19964;42.060;24.700;2023-05-16T03:20:48;97261.34;;;12.13;100.00
6094;BME280;19964;42.060;24.700;2023-05-16T03:23:18;97256.38;;;12.11;100.00
6094;BME280;19964;42.060;24.700;2023-05-16T03:25:45;97258.09;;;12.22;100.00
6094;BME280;19964;42.060;24.700;2023-05-16T03:28:12;97260.59;;;12.34;100.00
6094;BME280;19964;42.060;24.700;2023-05-16T03:30:39;97255.50;;;12.44;100.00
6094;BME280;19964;42.060;24.700;2023-05-16T03:33:06;97260.22;;;12.47;100.00
6094;BME280;19964;42.060;24.700;2023-05-16T03:35:34;97243.06;;;12.24;100.00
6094;BME280;19964;42.060;24.700;2023-05-16T03:38:02;97258.81;;;12.39;100.00
6094;BME280;19964;42.060;24.700;2023-05-16T03:40:30;97262.88;;;12.52;100.00
6094;BME280;19964;42.060;24.700;2023-05-16T03:42:58;97271.09;;;12.66;100.00
6094;BME280;19964;42.060;24.700;2023-05-16T03:45:25;97278.09;;;12.65;100.00
6094;BME280;19964;42.060;24.700;2023-05-16T03:47:52;97275.38;;;12.77;100.00
6094;BME280;19964;42.060;24.700;2023-05-16T03:50:19;97268.00;;;12.69;100.00
6094;BME280;19964;42.060;24.700;2023-05-16T03:52:46;97267.28;;;12.73;100.00
6094;BME280;19964;42.060;24.700;2023-05-16T03:55:13;97272.69;;;12.72;100.00
6094;BME280;19964;42.060;24.700;2023-05-16T03:57:42;97265.56;;;12.84;100.00
6094;BME280;19964;42.060;24.700;2023-05-16T04:00:10;97269.72;;;13.06;100.00
6094;BME280;19964;42.060;24.700;2023-05-16T04:02:37;97273.81;;;13.24;100.00
6094;BME280;19964;42.060;24.700;2023-05-16T04:05:07;97269.81;;;13.43;100.00
6094;BME280;19964;42.060;24.700;2023-05-16T04:07:34;97262.94;;;13.32;100.00
6094;BME280;19964;42.060;24.700;2023-05-16T04:10:02;97262.16;;;13.31;100.00
6094;BME280;19964;42.060;24.700;2023-05-16T04:12:29;97261.00;;;13.49;100.00
6094;BME280;19964;42.060;24.700;2023-05-16T04:14:57;97265.78;;;13.62;100.00
6094;BME280;19964;42.060;24.700;2023-05-16T04:17:24;97213.03;;;13.40;100.00
6094;BME280;19964;42.060;24.700;2023-05-16T04:19:51;97269.38;;;13.93;100.00
6094;BME280;19964;42.060;24.700;2023-05-16T04:22:20;97271.75;;;13.99;100.00
6094;BME280;19964;42.060;24.700;2023-05-16T04:24:47;97266.34;;;14.11;100.00
6094;BME280;19964;42.060;24.700;2023-05-16T04:27:14;97276.31;;;14.24;100.00
6094;BME280;19964;42.060;24.700;2023-05-16T04:29:41;97278.75;;;14.31;100.00
6094;BME280;19964;42.060;24.700;2023-05-16T04:32:10;97285.53;;;14.37;100.00
6094;BME280;19964;42.060;24.700;2023-05-16T04:34:37;97283.25;;;14.50;100.00
6094;BME280;19964;42.060;24.700;2023-05-16T04:37:04;97251.13;;;14.40;100.00
6094;BME280;19964;42.060;24.700;2023-05-16T04:39:32;97292.22;;;14.74;100.00
6094;BME280;19964;42.060;24.700;2023-05-16T04:41:59;97289.94;;;14.88;100.00
6094;BME280;19964;42.060;24.700;2023-05-16T04:44:26;97283.41;;;14.95;100.00
6094;BME280;19964;42.060;24.700;2023-05-16T04:46:53;97306.69;;;15.17;100.00
6094;BME280;19964;42.060;24.700;2023-05-16T04:49:22;97304.31;;;15.10;100.00
6094;BME280;19964;42.060;24.700;2023-05-16T04:51:49;97311.28;;;14.80;100.00
6094;BME280;19964;42.060;24.700;2023-05-16T04:54:16;97294.47;;;14.51;100.00
6094;BME280;19964;42.060;24.700;2023-05-16T04:56:43;97304.13;;;14.55;100.00
6094;BME280;19964;42.060;24.700;2023-05-16T04:59:10;97305.13;;;14.49;100.00
6094;BME280;19964;42.060;24.700;2023-05-16T05:01:37;97306.00;;;14.65;100.00
6094;BME280;19964;42.060;24.700;2023-05-16T05:04:05;97308.31;;;14.61;100.00
6094;BME280;19964;42.060;24.700;2023-05-16T05:06:33;97318.88;;;14.96;100.00
6094;BME280;19964;42.060;24.700;2023-05-16T05:09:00;97325.16;;;15.00;100.00
6094;BME280;19964;42.060;24.700;2023-05-16T05:11:27;97324.19;;;15.32;100.00
6094;BME280;19964;42.060;24.700;2023-05-16T05:13:54;97318.41;;;15.19;100.00
6094;BME280;19964;42.060;24.700;2023-05-16T05:16:21;97315.00;;;14.99;100.00
6094;BME280;19964;42.060;24.700;2023-05-16T05:18:48;97317.63;;;15.14;100.00
6094;BME280;19964;42.060;24.700;2023-05-16T05:21:15;97305.59;;;15.03;100.00
6094;BME280;19964;42.060;24.700;2023-05-16T05:23:44;97306.34;;;14.88;100.00
6094;BME280;19964;42.060;24.700;2023-05-16T05:26:11;97323.94;;;15.23;100.00
6094;BME280;19964;42.060;24.700;2023-05-16T05:28:38;97323.16;;;15.33;100.00
6094;BME280;19964;42.060;24.700;2023-05-16T05:31:05;97311.97;;;15.42;100.00
6094;BME280;19964;42.060;24.700;2023-05-16T05:33:32;97281.97;;;14.53;100.00
6094;BME280;19964;42.060;24.700;2023-05-16T05:35:59;97296.38;;;14.70;100.00
6094;BME280;19964;42.060;24.700;2023-05-16T05:38:26;97304.78;;;14.92;100.00
6094;BME280;19964;42.060;24.700;2023-05-16T05:40:55;97294.06;;;14.79;100.00
6094;BME280;19964;42.060;24.700;2023-05-16T05:43:22;97289.94;;;15.08;100.00
6094;BME280;19964;42.060;24.700;2023-05-16T05:45:48;97293.88;;;15.05;100.00
6094;BME280;19964;42.060;24.700;2023-05-16T05:48:15;97301.19;;;15.13;100.00
6094;BME280;19964;42.060;24.700;2023-05-16T05:50:43;97301.91;;;14.89;100.00
6094;BME280;19964;42.060;24.700;2023-05-16T05:53:09;97285.81;;;14.35;100.00
6094;BME280;19964;42.060;24.700;2023-05-16T05:55:36;97287.69;;;14.50;100.00
6094;BME280;19964;42.060;24.700;2023-05-16T05:58:07;97277.03;;;14.61;100.00
6094;BME280;19964;42.060;24.700;2023-05-16T06:00:34;97263.34;;;14.29;100.00
6094;BME280;19964;42.060;24.700;2023-05-16T06:03:01;97264.44;;;14.33;100.00
6094;BME280;19964;42.060;24.700;2023-05-16T06:05:28;97282.19;;;14.46;100.00
6094;BME280;19964;42.060;24.700;2023-05-16T06:07:55;97280.69;;;14.60;100.00
6094;BME280;19964;42.060;24.700;2023-05-16T06:10:22;97269.22;;;14.56;100.00
6094;BME280;19964;42.060;24.700;2023-05-16T06:12:49;97280.91;;;14.54;100.00
6094;BME280;19964;42.060;24.700;2023-05-16T06:15:18;97299.16;;;14.54;100.00
6094;BME280;19964;42.060;24.700;2023-05-16T06:17:45;97305.44;;;14.58;100.00
6094;BME280;19964;42.060;24.700;2023-05-16T06:20:12;97286.00;;;14.85;100.00
6094;BME280;19964;42.060;24.700;2023-05-16T06:22:39;97271.06;;;14.71;100.00
6094;BME280;19964;42.060;24.700;2023-05-16T06:25:07;97286.97;;;14.69;100.00
6094;BME280;19964;42.060;24.700;2023-05-16T06:27:34;97292.75;;;14.76;100.00
6094;BME280;19964;42.060;24.700;2023-05-16T06:30:00;97289.94;;;14.88;100.00
6094;BME280;19964;42.060;24.700;2023-05-16T06:32:29;97286.22;;;14.79;100.00
6094;BME280;19964;42.060;24.700;2023-05-16T06:34:56;97273.97;;;14.74;100.00
6094;BME280;19964;42.060;24.700;2023-05-16T06:37:23;97273.91;;;14.59;100.00
6094;BME280;19964;42.060;24.700;2023-05-16T06:39:50;97282.31;;;14.76;100.00
6094;BME280;19964;42.060;24.700;2023-05-16T06:42:17;97283.38;;;14.80;100.00
6094;BME280;19964;42.060;24.700;2023-05-16T06:44:45;97283.72;;;15.09;100.00
6094;BME280;19964;42.060;24.700;2023-05-16T06:47:12;97276.91;;;15.08;100.00
6094;BME280;19964;42.060;24.700;2023-05-16T06:49:40;97266.72;;;14.91;100.00
6094;BME280;19964;42.060;24.700;2023-05-16T06:52:07;97270.91;;;15.17;100.00
6094;BME280;19964;42.060;24.700;2023-05-16T06:54:34;97270.72;;;15.44;100.00
6094;BME280;19964;42.060;24.700;2023-05-16T06:57:01;97286.38;;;15.64;100.00
6094;BME280;19964;42.060;24.700;2023-05-16T06:59:28;97282.72;;;15.70;100.00
6094;BME280;19964;42.060;24.700;2023-05-16T07:01:55;97287.91;;;15.25;100.00
6094;BME280;19964;42.060;24.700;2023-05-16T07:04:22;97284.44;;;14.94;100.00
6094;BME280;19964;42.060;24.700;2023-05-16T07:06:50;97305.41;;;15.25;100.00
6094;BME280;19964;42.060;24.700;2023-05-16T07:09:17;97286.41;;;15.44;100.00
6094;BME280;19964;42.060;24.700;2023-05-16T07:11:44;97280.06;;;15.20;100.00
6094;BME280;19964;42.060;24.700;2023-05-16T07:14:11;97252.91;;;14.96;100.00
6094;BME280;19964;42.060;24.700;2023-05-16T07:16:38;97275.91;;;15.19;100.00
6094;BME280;19964;42.060;24.700;2023-05-16T07:19:05;97271.44;;;15.04;100.00
6094;BME280;19964;42.060;24.700;2023-05-16T07:21:32;97277.69;;;15.13;100.00
6094;BME280;19964;42.060;24.700;2023-05-16T07:24:00;97271.69;;;15.03;100.00
6094;BME280;19964;42.060;24.700;2023-05-16T07:26:27;97259.44;;;15.03;100.00
6094;BME280;19964;42.060;24.700;2023-05-16T07:28:54;97255.00;;;15.29;100.00
6094;BME280;19964;42.060;24.700;2023-05-16T07:31:21;97259.22;;;15.45;100.00
6094;BME280;19964;42.060;24.700;2023-05-16T07:33:48;97267.03;;;15.35;100.00
6094;BME280;19964;42.060;24.700;2023-05-16T07:36:15;97254.78;;;15.31;100.00
6094;BME280;19964;42.060;24.700;2023-05-16T07:38:42;97245.63;;;15.28;100.00
6094;BME280;19964;42.060;24.700;2023-05-16T07:41:11;97251.88;;;15.37;100.00
6094;BME280;19964;42.060;24.700;2023-05-16T07:43:38;97259.75;;;15.42;100.00
6094;BME280;19964;42.060;24.700;2023-05-16T07:46:05;97264.41;;;15.30;100.00
6094;BME280;19964;42.060;24.700;2023-05-16T07:48:32;97256.84;;;15.18;100.00
6094;BME280;19964;42.060;24.700;2023-05-16T07:50:59;97248.75;;;15.20;100.00
6094;BME280;19964;42.060;24.700;2023-05-16T07:53:26;97233.34;;;15.13;100.00
6094;BME280;19964;42.060;24.700;2023-05-16T07:55:53;97234.66;;;15.26;100.00
6094;BME280;19964;42.060;24.700;2023-05-16T07:58:22;97230.50;;;15.30;100.00
6094;BME280;19964;42.060;24.700;2023-05-16T08:00:49;97224.47;;;15.40;100.00
6094;BME280;19964;42.060;24.700;2023-05-16T08:03:16;97206.47;;;15.28;100.00
6094;BME280;19964;42.060;24.700;2023-05-16T08:05:43;97221.06;;;15.29;100.00
6094;BME280;19964;42.060;24.700;2023-05-16T08:08:10;97225.78;;;15.32;100.00
6094;BME280;19964;42.060;24.700;2023-05-16T08:10:37;97221.41;;;15.43;100.00
6094;BME280;19964;42.060;24.700;2023-05-16T08:13:04;97220.59;;;15.52;100.00
6094;BME280;19964;42.060;24.700;2023-05-16T08:15:32;97215.63;;;15.51;100.00
6094;BME280;19964;42.060;24.700;2023-05-16T08:17:59;97231.81;;;15.58;100.00
6094;BME280;19964;42.060;24.700;2023-05-16T08:20:26;97217.69;;;15.69;100.00
6094;BME280;19964;42.060;24.700;2023-05-16T08:22:54;97224.75;;;15.53;100.00
6094;BME280;19964;42.060;24.700;2023-05-16T08:25:21;97184.03;;;15.32;100.00
6094;BME280;19964;42.060;24.700;2023-05-16T08:27:48;97229.44;;;15.91;100.00
6094;BME280;19964;42.060;24.700;2023-05-16T08:30:16;97237.19;;;16.12;100.00
6094;BME280;19964;42.060;24.700;2023-05-16T08:32:44;97235.63;;;16.21;100.00
6094;BME280;19964;42.060;24.700;2023-05-16T08:35:11;97230.91;;;16.18;100.00
6094;BME280;19964;42.060;24.700;2023-05-16T08:37:38;97223.59;;;16.10;100.00
6094;BME280;19964;42.060;24.700;2023-05-16T08:40:08;97221.31;;;15.88;100.00
6094;BME280;19964;42.060;24.700;2023-05-16T08:42:36;97210.63;;;15.84;100.00
6094;BME280;19964;42.060;24.700;2023-05-16T08:45:04;97214.75;;;16.00;100.00
6094;BME280;19964;42.060;24.700;2023-05-16T08:47:32;97208.97;;;16.14;100.00
6094;BME280;19964;42.060;24.700;2023-05-16T08:50:03;97209.28;;;15.92;100.00
6094;BME280;19964;42.060;24.700;2023-05-16T08:52:31;97219.97;;;16.05;100.00
6094;BME280;19964;42.060;24.700;2023-05-16T08:55:01;97217.03;;;16.17;100.00
6094;BME280;19964;42.060;24.700;2023-05-16T08:57:32;97174.19;;;16.18;100.00
6094;BME280;19964;42.060;24.700;2023-05-16T08:59:59;97202.91;;;16.23;100.00
6094;BME280;19964;42.060;24.700;2023-05-16T09:02:31;97205.28;;;16.20;100.00
6094;BME280;19964;42.060;24.700;2023-05-16T09:04:59;97224.03;;;16.37;100.00
6094;BME280;19964;42.060;24.700;2023-05-16T09:07:28;97228.03;;;16.14;100.00
6094;BME280;19964;42.060;24.700;2023-05-16T09:09:55;97192.25;;;16.10;100.00
6094;BME280;19964;42.060;24.700;2023-05-16T09:12:22;97216.69;;;16.44;100.00
6094;BME280;19964;42.060;24.700;2023-05-16T09:14:49;97219.72;;;16.71;100.00
6094;BME280;19964;42.060;24.700;2023-05-16T09:17:17;97212.56;;;16.86;100.00
6094;BME280;19964;42.060;24.700;2023-05-16T09:19:44;97204.09;;;17.00;100.00
6094;BME280;19964;42.060;24.700;2023-05-16T09:22:13;97180.59;;;16.95;100.00
6094;BME280;19964;42.060;24.700;2023-05-16T09:24:44;97205.69;;;17.01;100.00
6094;BME280;19964;42.060;24.700;2023-05-16T09:27:12;97228.06;;;17.17;100.00
6094;BME280;19964;42.060;24.700;2023-05-16T09:29:40;97216.31;;;17.14;100.00
6094;BME280;19964;42.060;24.700;2023-05-16T09:32:12;97201.69;;;16.69;100.00
6094;BME280;19964;42.060;24.700;2023-05-16T09:34:42;97181.53;;;16.70;100.00
6094;BME280;19964;42.060;24.700;2023-05-16T09:37:09;97190.56;;;16.92;100.00
6094;BME280;19964;42.060;24.700;2023-05-16T09:39:38;97197.72;;;17.11;100.00
6094;BME280;19964;42.060;24.700;2023-05-16T09:42:10;97185.91;;;16.84;100.00
6094;BME280;19964;42.060;24.700;2023-05-16T09:44:38;97200.09;;;17.12;100.00
6094;BME280;19964;42.060;24.700;2023-05-16T09:47:05;97175.47;;;17.13;100.00
6094;BME280;19964;42.060;24.700;2023-05-16T09:49:33;97188.34;;;17.10;100.00
6094;BME280;19964;42.060;24.700;2023-05-16T09:52:02;97187.47;;;17.53;100.00
6094;BME280;19964;42.060;24.700;2023-05-16T09:54:30;97161.91;;;17.68;100.00
6094;BME280;19964;42.060;24.700;2023-05-16T09:56:58;97186.63;;;17.57;100.00
6094;BME280;19964;42.060;24.700;2023-05-16T09:59:29;97166.19;;;17.59;100.00
6094;BME280;19964;42.060;24.700;2023-05-16T10:01:57;97194.09;;;17.74;100.00
6094;BME280;19964;42.060;24.700;2023-05-16T10:04:25;97195.88;;;17.50;100.00
6094;BME280;19964;42.060;24.700;2023-05-16T10:06:54;97180.56;;;17.28;100.00
6094;BME280;19964;42.060;24.700;2023-05-16T10:09:22;97193.00;;;17.51;100.00
6094;BME280;19964;42.060;24.700;2023-05-16T10:11:51;97204.94;;;17.62;100.00
6094;BME280;19964;42.060;24.700;2023-05-16T10:14:18;97206.13;;;17.75;100.00
6094;BME280;19964;42.060;24.700;2023-05-16T10:16:48;97155.59;;;17.69;100.00
6094;BME280;19964;42.060;24.700;2023-05-16T10:19:16;97192.88;;;18.14;100.00
6094;BME280;19964;42.060;24.700;2023-05-16T10:21:50;97170.19;;;17.81;99.72
6094;BME280;19964;42.060;24.700;2023-05-16T10:24:23;97168.88;;;17.78;100.00
6094;BME280;19964;42.060;24.700;2023-05-16T10:26:52;97170.28;;;17.94;100.00
6094;BME280;19964;42.060;24.700;2023-05-16T10:29:19;97133.72;;;17.84;99.80
6094;BME280;19964;42.060;24.700;2023-05-16T10:31:48;97151.09;;;17.99;98.75
6094;BME280;19964;42.060;24.700;2023-05-16T10:34:15;97157.84;;;18.05;98.06
6094;BME280;19964;42.060;24.700;2023-05-16T10:36:44;97153.47;;;18.37;98.29
6094;BME280;19964;42.060;24.700;2023-05-16T10:39:12;97146.59;;;18.41;98.04
6094;BME280;19964;42.060;24.700;2023-05-16T10:41:41;97149.63;;;18.72;98.43
6094;BME280;19964;42.060;24.700;2023-05-16T10:44:12;97144.59;;;19.08;97.24
6094;BME280;19964;42.060;24.700;2023-05-16T10:46:40;97089.88;;;18.83;94.19
6094;BME280;19964;42.060;24.700;2023-05-16T10:49:22;97147.09;;;19.50;93.61
6094;BME280;19964;42.060;24.700;2023-05-16T10:52:03;97138.25;;;19.73;93.17
6094;BME280;19964;42.060;24.700;2023-05-16T10:54:35;97135.03;;;19.90;91.07
6094;BME280;19964;42.060;24.700;2023-05-16T10:57:08;97125.00;;;19.65;89.37
6094;BME280;19964;42.060;24.700;2023-05-16T10:59:43;97124.31;;;19.45;90.27
6094;BME280;19964;42.060;24.700;2023-05-16T11:02:24;97110.25;;;19.04;91.71
6094;BME280;19964;42.060;24.700;2023-05-16T11:04:57;97115.34;;;19.14;93.29
6094;BME280;19964;42.060;24.700;2023-05-16T11:07:30;97115.38;;;19.46;92.37
6094;BME280;19964;42.060;24.700;2023-05-16T11:10:05;97120.47;;;19.06;92.80
6094;BME280;19964;42.060;24.700;2023-05-16T11:12:37;97114.25;;;19.34;92.32
6094;BME280;19964;42.060;24.700;2023-05-16T11:15:23;97084.53;;;18.74;93.20
6094;BME280;19964;42.060;24.700;2023-05-16T11:17:50;97118.34;;;18.57;97.15
6094;BME280;19964;42.060;24.700;2023-05-16T11:20:32;97093.69;;;18.58;97.88
6094;BME280;19964;42.060;24.700;2023-05-16T11:23:21;97109.69;;;18.38;98.86
6094;BME280;19964;42.060;24.700;2023-05-16T11:25:51;97104.31;;;18.29;100.00
6094;BME280;19964;42.060;24.700;2023-05-16T11:28:20;97107.91;;;18.71;100.00
6094;BME280;19964;42.060;24.700;2023-05-16T11:30:48;97108.34;;;18.59;96.33
6094;BME280;19964;42.060;24.700;2023-05-16T11:33:16;97112.34;;;18.56;97.92
6094;BME280;19964;42.060;24.700;2023-05-16T11:35:59;97117.91;;;18.68;95.22
6094;BME280;19964;42.060;24.700;2023-05-16T11:38:29;97109.28;;;19.00;96.55
6094;BME280;19964;42.060;24.700;2023-05-16T11:41:01;97097.84;;;19.23;95.81
6094;BME280;19964;42.060;24.700;2023-05-16T11:43:28;97075.34;;;19.36;95.03
6094;BME280;19964;42.060;24.700;2023-05-16T11:45:56;97067.63;;;18.80;94.62
6094;BME280;19964;42.060;24.700;2023-05-16T11:48:24;97100.53;;;18.73;95.53
6094;BME280;19964;42.060;24.700;2023-05-16T11:50:52;97087.88;;;18.93;96.25
6094;BME280;19964;42.060;24.700;2023-05-16T11:53:19;97116.06;;;18.88;94.09
6094;BME280;19964;42.060;24.700;2023-05-16T11:55:50;97094.13;;;18.97;95.49
6094;BME280;19964;42.060;24.700;2023-05-16T11:58:18;97080.59;;;19.36;95.03
6094;BME280;19964;42.060;24.700;2023-05-16T12:00:49;97077.19;;;19.35;94.13
6094;BME280;19964;42.060;24.700;2023-05-16T12:03:17;97086.06;;;19.53;93.48
6094;BME280;19964;42.060;24.700;2023-05-16T12:05:54;97082.94;;;19.65;93.05
6094;BME280;19964;42.060;24.700;2023-05-16T12:08:22;97109.03;;;19.75;90.61
6094;BME280;19964;42.060;24.700;2023-05-16T12:10:50;97107.75;;;19.72;90.21
6094;BME280;19964;42.060;24.700;2023-05-16T12:13:18;97108.91;;;19.80;90.56
6094;BME280;19964;42.060;24.700;2023-05-16T12:15:46;97119.66;;;19.83;91.21
6094;BME280;19964;42.060;24.700;2023-05-16T12:18:14;97113.50;;;19.74;91.67
6094;BME280;19964;42.060;24.700;2023-05-16T12:20:42;97095.19;;;19.42;93.22
6094;BME280;19964;42.060;24.700;2023-05-16T12:23:13;97111.75;;;19.56;95.35
6094;BME280;19964;42.060;24.700;2023-05-16T12:25:44;97080.19;;;19.29;94.95
6094;BME280;19964;42.060;24.700;2023-05-16T12:28:15;97115.38;;;19.60;93.16
6094;BME280;19964;42.060;24.700;2023-05-16T12:30:43;97102.22;;;19.60;92.67
6094;BME280;19964;42.060;24.700;2023-05-16T12:33:13;97099.31;;;19.62;93.68
6094;BME280;19964;42.060;24.700;2023-05-16T12:35:42;97080.97;;;19.43;95.24
6094;BME280;19964;42.060;24.700;2023-05-16T12:38:11;97090.34;;;19.49;97.00
6094;BME280;19964;42.060;24.700;2023-05-16T12:40:41;97087.50;;;19.45;98.78
6094;BME280;19964;42.060;24.700;2023-05-16T12:43:12;97070.16;;;19.31;100.00
6094;BME280;19964;42.060;24.700;2023-05-16T12:45:39;97059.22;;;19.42;98.94
6094;BME280;19964;42.060;24.700;2023-05-16T12:48:11;97059.47;;;19.68;100.00
6094;BME280;19964;42.060;24.700;2023-05-16T12:50:38;97058.56;;;20.00;100.00
6094;BME280;19964;42.060;24.700;2023-05-16T12:53:10;97041.69;;;20.14;99.26
6094;BME280;19964;42.060;24.700;2023-05-16T12:55:38;97039.22;;;20.18;96.08
6094;BME280;19964;42.060;24.700;2023-05-16T12:58:07;97005.81;;;20.32;91.60
6094;BME280;19964;42.060;24.700;2023-05-16T13:00:34;97059.13;;;20.10;92.62